createdAt,value
2022-10-17T00:01:14.678Z,101099.63
2022-10-17T00:03:43.375Z,101099.50
2022-10-17T00:06:15.995Z,101105.66
2022-10-17T00:08:45.967Z,101103.91
2022-10-17T00:11:19.492Z,101108.34
2022-10-17T00:13:48.668Z,101112.78
2022-10-17T00:16:23.945Z,101115.50
2022-10-17T00:18:52.276Z,101109.38
2022-10-17T00:21:23.307Z,101117.38
2022-10-17T00:23:51.935Z,101118.38
2022-10-17T00:26:20.818Z,101120.13
2022-10-17T00:28:50.422Z,101114.09
2022-10-17T00:31:21.917Z,101122.13
2022-10-17T00:33:52.006Z,101125.78
2022-10-17T00:36:24.286Z,101125.00
2022-10-17T00:38:56.552Z,101132.09
2022-10-17T00:41:27.692Z,101135.69
2022-10-17T00:43:59.875Z,101133.25
2022-10-17T00:46:31.374Z,101133.38
2022-10-17T00:49:07.782Z,101144.06
2022-10-17T00:51:43.313Z,101143.28
2022-10-17T00:54:14.757Z,101142.53
2022-10-17T00:56:43.700Z,101135.66
2022-10-17T00:59:14.761Z,101134.03
2022-10-17T01:01:48.030Z,101137.59
2022-10-17T01:04:16.819Z,101134.13
2022-10-17T01:06:46.421Z,101135.06
2022-10-17T01:09:15.109Z,101141.28
2022-10-17T01:11:53.347Z,101136.88
2022-10-17T01:14:32.306Z,101137.81
2022-10-17T01:17:10.855Z,101138.69
2022-10-17T01:20:16.547Z,101137.81
2022-10-17T01:22:52.985Z,101135.19
2022-10-17T01:25:36.136Z,101143.09
2022-10-17T01:28:30.600Z,101142.34
2022-10-17T01:31:09.021Z,101137.97
2022-10-17T01:33:54.637Z,101138.09
2022-10-17T01:36:37.647Z,101134.59
2022-10-17T01:39:16.934Z,101137.34
2022-10-17T01:41:53.759Z,101121.66
2022-10-17T01:44:28.496Z,101134.91
2022-10-17T01:47:04.308Z,101128.78
2022-10-17T01:49:36.272Z,101125.19
2022-10-17T01:52:09.875Z,101127.00
2022-10-17T01:54:43.617Z,101126.09
2022-10-17T01:57:19.193Z,101119.06
2022-10-17T01:59:51.181Z,101115.63
2022-10-17T02:02:22.297Z,101118.19
2022-10-17T02:04:53.338Z,101124.34
2022-10-17T02:07:21.681Z,101120.91
2022-10-17T02:09:50.283Z,101120.91
2022-10-17T02:12:46.551Z,101110.50
2022-10-17T02:15:57.883Z,101119.38
2022-10-17T02:19:01.772Z,101128.34
2022-10-17T02:21:41.372Z,101117.91
2022-10-17T02:24:20.594Z,101113.63
2022-10-17T02:26:57.664Z,101114.53
2022-10-17T02:29:31.489Z,101114.66
2022-10-17T02:32:05.753Z,101116.47
2022-10-17T02:34:39.650Z,101120.97
2022-10-17T02:37:11.712Z,101120.97
2022-10-17T02:39:43.677Z,101125.31
2022-10-17T02:42:16.028Z,101116.56
2022-10-17T02:44:46.471Z,101123.59
2022-10-17T02:47:23.289Z,101127.91
2022-10-17T02:49:56.179Z,101124.28
2022-10-17T02:52:31.250Z,101128.56
2022-10-17T02:55:07.612Z,101122.25
2022-10-17T02:57:39.913Z,101129.97
2022-10-17T03:00:13.178Z,101129.75
2022-10-17T03:02:44.851Z,101137.53
2022-10-17T03:05:18.520Z,101141.84
2022-10-17T03:07:47.238Z,101143.56
2022-10-17T03:10:16.119Z,101139.19
2022-10-17T03:12:44.663Z,101142.81
2022-10-17T03:15:15.016Z,101140.28
2022-10-17T03:20:16.712Z,101156.47
2022-10-17T03:22:45.295Z,101161.88
2022-10-17T03:25:13.521Z,101155.03
2022-10-17T03:27:41.892Z,101156.91
2022-10-17T03:30:11.527Z,101160.59
2022-10-17T03:32:40.288Z,101158.94
2022-10-17T03:35:12.617Z,101157.34
2022-10-17T03:37:46.734Z,101153.97
2022-10-17T03:40:16.615Z,101157.66
2022-10-17T03:42:45.643Z,101151.63
2022-10-17T03:45:14.272Z,101157.03
2022-10-17T03:47:43.788Z,101159.78
2022-10-17T03:50:12.371Z,101161.66
2022-10-17T03:52:41.353Z,101171.47
2022-10-17T03:55:11.752Z,101168.97
2022-10-17T03:57:43.372Z,101177.91
2022-10-17T04:00:15.074Z,101171.00
2022-10-17T04:02:44.882Z,101179.94
2022-10-17T04:05:19.383Z,101185.28
2022-10-17T04:07:48.988Z,101184.59
2022-10-17T04:10:20.509Z,101193.47
2022-10-17T04:12:49.413Z,101195.41
2022-10-17T04:15:19.521Z,101204.28
2022-10-17T04:17:48.627Z,101199.09
2022-10-17T04:20:18.187Z,101202.63
2022-10-17T04:22:46.834Z,101201.78
2022-10-17T04:25:15.431Z,101200.06
2022-10-17T04:27:49.002Z,101209.78
2022-10-17T04:30:18.022Z,101210.69
2022-10-17T04:32:47.302Z,101201.06
2022-10-17T04:35:22.001Z,101209.88
2022-10-17T04:37:56.552Z,101201.16
2022-10-17T04:40:25.030Z,101205.59
2022-10-17T04:42:55.581Z,101203.00
2022-10-17T04:45:31.672Z,101204.84
2022-10-17T04:48:03.972Z,101197.88
2022-10-17T04:50:32.201Z,101200.50
2022-10-17T04:53:31.508Z,101202.31
2022-10-17T04:56:00.252Z,101194.47
2022-10-17T04:58:31.480Z,101196.28
2022-10-17T05:01:00.092Z,101201.56
2022-10-17T05:03:30.996Z,101198.94
2022-10-17T05:06:00.160Z,101198.16
2022-10-17T05:08:28.704Z,101215.75
2022-10-17T05:10:57.072Z,101200.88
2022-10-17T05:13:25.376Z,101214.16
2022-10-17T05:15:55.100Z,101213.31
2022-10-17T05:18:23.680Z,101211.59
2022-10-17T05:20:51.957Z,101224.88
2022-10-17T05:23:20.555Z,101217.03
2022-10-17T05:25:49.219Z,101223.25
2022-10-17T05:28:17.711Z,101232.06
2022-10-17T05:30:46.243Z,101224.22
2022-10-17T05:33:15.888Z,101227.75
2022-10-17T05:35:44.181Z,101235.69
2022-10-17T05:38:12.748Z,101245.38
2022-10-17T05:40:43.932Z,101241.03
2022-10-17T05:43:12.655Z,101240.97
2022-10-17T05:45:42.501Z,101224.28
2022-10-17T05:48:16.913Z,101231.34
2022-10-17T05:50:45.745Z,101234.84
2022-10-17T05:53:17.487Z,101234.84
2022-10-17T05:55:58.356Z,101238.38
2022-10-17T06:01:34.828Z,101240.03
2022-10-17T06:04:04.790Z,101245.25
2022-10-17T06:06:33.605Z,101234.66
2022-10-17T06:09:02.689Z,101234.59
2022-10-17T06:11:34.821Z,101248.59
2022-10-17T06:14:03.324Z,101249.41
2022-10-17T06:16:32.145Z,101255.50
2022-10-17T06:19:01.307Z,101245.81
2022-10-17T06:21:34.311Z,101254.50
2022-10-17T06:24:14.631Z,101258.88
2022-10-17T06:26:44.405Z,101240.19
2022-10-17T06:29:14.905Z,101261.91
2022-10-17T06:31:51.900Z,101262.53
2022-10-17T06:34:21.150Z,101271.84
2022-10-17T06:36:50.815Z,101269.72
2022-10-17T06:39:20.597Z,101271.00
2022-10-17T06:42:05.560Z,101284.69
2022-10-17T06:44:59.994Z,101269.28
2022-10-17T06:47:44.444Z,101285.53
2022-10-17T06:50:29.237Z,101295.66
2022-10-17T06:53:12.083Z,101295.22
2022-10-17T06:56:15.885Z,101298.03
2022-10-17T06:59:00.947Z,101299.88
2022-10-17T07:01:36.717Z,101300.03
2022-10-17T07:04:06.559Z,101306.50
2022-10-17T07:06:36.005Z,101303.25
2022-10-17T07:09:11.717Z,101294.06
2022-10-17T07:11:40.180Z,101301.56
2022-10-17T07:14:08.649Z,101299.00
2022-10-17T07:16:37.570Z,101294.97
2022-10-17T07:19:32.072Z,101299.44
2022-10-17T07:22:00.484Z,101301.19
2022-10-17T07:24:30.426Z,101306.13
2022-10-17T07:27:06.392Z,101298.28
2022-10-17T07:29:35.378Z,101314.06
2022-10-17T07:32:10.665Z,101308.50
2022-10-17T07:34:39.197Z,101304.44
2022-10-17T07:37:09.900Z,101309.22
2022-10-17T07:39:41.661Z,101318.22
2022-10-17T07:42:11.803Z,101323.03
2022-10-17T07:44:40.343Z,101329.81
2022-10-17T07:47:08.598Z,101330.84
2022-10-17T07:49:42.381Z,101327.78
2022-10-17T07:52:12.040Z,101333.63
2022-10-17T07:54:41.894Z,101341.13
2022-10-17T07:57:10.759Z,101336.84
2022-10-17T07:59:39.693Z,101334.41
2022-10-17T08:02:10.359Z,101342.03
2022-10-17T08:04:39.089Z,101328.22
2022-10-17T08:07:21.001Z,101335.44
2022-10-17T08:09:53.022Z,101339.72
2022-10-17T08:12:21.249Z,101329.78
2022-10-17T08:14:49.508Z,101329.44
2022-10-17T08:17:18.007Z,101327.28
2022-10-17T08:19:46.234Z,101327.41
2022-10-17T08:22:14.418Z,101325.31
2022-10-17T08:24:44.480Z,101336.25
2022-10-17T08:27:14.356Z,101333.88
2022-10-17T08:29:42.656Z,101334.16
2022-10-17T08:32:10.872Z,101335.53
2022-10-17T08:34:39.361Z,101335.03
2022-10-17T08:37:07.992Z,101329.88
2022-10-17T08:39:36.316Z,101330.78
2022-10-17T08:42:33.732Z,101335.09
2022-10-17T08:45:14.657Z,101336.72
2022-10-17T08:47:47.158Z,101338.53
2022-10-17T08:50:24.933Z,101340.34
2022-10-17T08:52:56.823Z,101337.53
2022-10-17T08:55:34.193Z,101330.13
2022-10-17T08:58:03.805Z,101328.72
2022-10-17T09:00:33.724Z,101332.09
2022-10-17T09:03:20.884Z,101329.44
2022-10-17T09:05:55.734Z,101332.16
2022-10-17T09:08:32.945Z,101333.97
2022-10-17T09:11:08.706Z,101328.91
2022-10-17T09:14:01.304Z,101330.06
2022-10-17T09:16:51.612Z,101338.63
2022-10-17T09:19:26.519Z,101341.50
2022-10-17T09:21:59.917Z,101340.22
2022-10-17T09:24:41.065Z,101340.63
2022-10-17T09:27:23.278Z,101349.31
2022-10-17T09:30:40.188Z,101342.53
2022-10-17T09:33:23.339Z,101339.78
2022-10-17T09:36:03.559Z,101342.56
2022-10-17T09:38:40.623Z,101342.31
2022-10-17T09:41:44.232Z,101329.84
2022-10-17T09:44:21.759Z,101339.34
2022-10-17T09:47:17.331Z,101327.03
2022-10-17T09:49:47.276Z,101329.50
2022-10-17T09:52:18.888Z,101337.59
2022-10-17T09:54:49.389Z,101332.75
2022-10-17T09:57:20.314Z,101346.72
2022-10-17T09:59:58.925Z,101348.78
2022-10-17T10:02:32.641Z,101363.38
2022-10-17T10:05:06.677Z,101364.00
2022-10-17T10:07:39.072Z,101359.72
2022-10-17T10:10:27.755Z,101369.53
2022-10-17T10:13:21.356Z,101373.78
2022-10-17T10:15:52.110Z,101372.88
2022-10-17T10:18:36.831Z,101368.53
2022-10-17T10:21:13.231Z,101373.59
2022-10-17T10:23:43.720Z,101369.78
2022-10-17T10:26:24.220Z,101370.97
2022-10-17T10:29:03.240Z,101365.84
2022-10-17T10:31:36.800Z,101371.97
2022-10-17T10:34:19.527Z,101367.88
2022-10-17T10:36:57.360Z,101364.31
2022-10-17T10:39:47.032Z,101367.53
2022-10-17T10:42:27.661Z,101360.63
2022-10-17T10:45:02.449Z,101359.28
2022-10-17T10:47:32.607Z,101355.38
2022-10-17T10:50:28.112Z,101366.03
2022-10-17T10:53:23.279Z,101371.16
2022-10-17T10:55:56.111Z,101363.84
2022-10-17T10:58:43.444Z,101376.56
2022-10-17T11:01:21.566Z,101373.00
2022-10-17T11:04:06.064Z,101368.72
2022-10-17T11:06:40.155Z,101377.41
2022-10-17T11:09:24.445Z,101371.66
2022-10-17T11:12:01.550Z,101363.94
2022-10-17T11:14:41.231Z,101368.94
2022-10-17T11:17:18.744Z,101361.31
2022-10-17T11:19:53.393Z,101372.09
2022-10-17T11:22:29.410Z,101363.06
2022-10-17T11:25:03.866Z,101363.50
2022-10-17T11:27:32.801Z,101378.72
2022-10-17T11:30:01.487Z,101372.69
2022-10-17T11:32:36.049Z,101387.75
2022-10-17T11:35:15.912Z,101380.03
2022-10-17T11:37:51.649Z,101381.63
2022-10-17T11:40:29.847Z,101380.72
2022-10-17T11:43:02.553Z,101391.31
2022-10-17T11:45:44.244Z,101378.34
2022-10-17T11:48:21.702Z,101373.59
2022-10-17T11:53:58.024Z,101373.84
2022-10-17T11:56:41.846Z,101379.16
2022-10-17T11:59:48.656Z,101382.16
2022-10-17T12:02:28.679Z,101386.56
2022-10-17T12:05:05.689Z,101393.22
2022-10-17T12:10:35.101Z,101378.47
2022-10-17T12:13:51.565Z,101387.22
2022-10-17T12:16:46.833Z,101381.28
2022-10-17T12:19:36.826Z,101374.88
2022-10-17T12:22:19.448Z,101381.72
2022-10-17T12:24:57.836Z,101377.84
2022-10-17T12:27:46.186Z,101368.53
2022-10-17T12:30:24.653Z,101368.91
2022-10-17T12:33:21.798Z,101372.31
2022-10-17T12:35:52.060Z,101376.72
2022-10-17T12:38:28.533Z,101380.16
2022-10-17T12:41:14.461Z,101385.84
2022-10-17T12:43:54.808Z,101370.13
2022-10-17T12:46:59.613Z,101367.59
2022-10-17T12:49:51.097Z,101372.25
2022-10-17T12:52:41.978Z,101367.16
2022-10-17T12:55:15.527Z,101369.84
2022-10-17T12:57:52.295Z,101363.19
2022-10-17T13:00:34.774Z,101367.78
2022-10-17T13:03:13.925Z,101358.69
2022-10-17T13:05:49.586Z,101356.41
2022-10-17T13:08:22.953Z,101367.34
2022-10-17T13:10:54.665Z,101364.38
2022-10-17T13:13:28.448Z,101365.78
2022-10-17T13:15:58.060Z,101372.47
2022-10-17T13:18:28.911Z,101372.63
2022-10-17T13:21:00.205Z,101371.47
2022-10-17T13:23:33.814Z,101382.56
2022-10-17T13:26:14.435Z,101380.31
2022-10-17T13:28:43.593Z,101379.75
2022-10-17T13:34:06.777Z,101385.78
2022-10-17T13:36:36.483Z,101389.63
2022-10-17T13:39:12.202Z,101399.84
2022-10-17T13:41:43.541Z,101397.31
2022-10-17T13:44:19.927Z,101402.16
2022-10-17T13:46:48.929Z,101400.41
2022-10-17T13:49:26.005Z,101394.59
2022-10-17T13:51:57.321Z,101397.81
2022-10-17T13:54:37.616Z,101386.31
2022-10-17T13:57:07.575Z,101399.91
2022-10-17T13:59:40.544Z,101396.91
2022-10-17T14:02:16.924Z,101395.19
2022-10-17T14:08:09.316Z,101393.97
2022-10-17T14:10:37.411Z,101386.81
2022-10-17T14:13:08.140Z,101393.84
2022-10-17T14:15:37.970Z,101400.84
2022-10-17T14:18:09.300Z,101393.84
2022-10-17T14:23:36.169Z,101399.72
2022-10-17T14:26:15.243Z,101401.72
2022-10-17T14:28:47.284Z,101401.97
2022-10-17T14:31:31.543Z,101401.88
2022-10-17T14:34:01.107Z,101408.84
2022-10-17T14:36:39.806Z,101414.22
2022-10-17T14:39:19.425Z,101409.69
2022-10-17T14:41:48.763Z,101420.56
2022-10-17T14:44:30.260Z,101419.78
2022-10-17T14:47:18.286Z,101422.69
2022-10-17T14:49:52.482Z,101422.13
2022-10-17T14:52:33.439Z,101427.69
2022-10-17T14:55:23.899Z,101431.56
2022-10-17T14:57:52.576Z,101439.06
2022-10-17T15:00:23.032Z,101435.53
2022-10-17T15:02:53.729Z,101441.78
2022-10-17T15:05:23.285Z,101444.41
2022-10-17T15:07:53.477Z,101443.97
2022-10-17T15:10:33.672Z,101446.03
2022-10-17T15:15:52.316Z,101452.59
2022-10-17T15:18:20.920Z,101450.66
2022-10-17T15:20:55.348Z,101448.72
2022-10-17T15:23:34.397Z,101446.56
2022-10-17T15:26:02.871Z,101456.88
2022-10-17T15:28:31.177Z,101448.22
2022-10-17T15:30:59.748Z,101459.38
2022-10-17T15:33:28.027Z,101456.50
2022-10-17T15:38:29.740Z,101443.63
2022-10-17T15:40:59.337Z,101452.13
2022-10-17T15:43:27.520Z,101451.94
2022-10-17T15:45:55.798Z,101448.94
2022-10-17T15:48:33.496Z,101444.47
2022-10-17T15:51:02.086Z,101449.72
2022-10-17T15:53:30.300Z,101449.63
2022-10-17T15:56:00.759Z,101454.88
2022-10-17T15:58:35.105Z,101451.31
2022-10-17T16:01:03.984Z,101445.31
2022-10-17T16:03:32.646Z,101462.09
2022-10-17T16:06:01.314Z,101455.75
2022-10-17T16:08:29.511Z,101464.50
2022-10-17T16:10:59.544Z,101463.38
2022-10-17T16:13:27.916Z,101466.75
2022-10-17T16:15:56.119Z,101464.81
2022-10-17T16:18:24.295Z,101464.56
2022-10-17T16:20:52.555Z,101465.16
2022-10-17T16:23:20.763Z,101467.47
2022-10-17T16:25:48.939Z,101477.03
2022-10-17T16:28:18.489Z,101472.25
2022-10-17T16:30:46.668Z,101472.81
2022-10-17T16:33:14.951Z,101481.22
2022-10-17T16:35:43.550Z,101479.13
2022-10-17T16:38:12.028Z,101481.22
2022-10-17T16:40:40.783Z,101477.41
2022-10-17T16:43:11.760Z,101482.16
2022-10-17T16:45:42.159Z,101486.19
2022-10-17T16:48:12.308Z,101486.75
2022-10-17T16:50:41.397Z,101489.00
2022-10-17T16:53:09.952Z,101490.34
2022-10-17T16:55:38.162Z,101502.31
2022-10-17T16:58:06.336Z,101500.97
2022-10-17T17:00:34.605Z,101505.81
2022-10-17T17:03:04.251Z,101507.22
2022-10-17T17:05:32.477Z,101513.84
2022-10-17T17:08:00.918Z,101499.13
2022-10-17T17:10:29.154Z,101510.16
2022-10-17T17:12:57.328Z,101514.16
2022-10-17T17:15:25.812Z,101514.50
2022-10-17T17:17:55.714Z,101520.16
2022-10-17T17:20:25.844Z,101524.91
2022-10-17T17:22:54.360Z,101522.59
2022-10-17T17:25:23.382Z,101531.63
2022-10-17T17:27:51.912Z,101537.19
2022-10-17T17:30:20.296Z,101533.94
2022-10-17T17:32:48.545Z,101535.97
2022-10-17T17:35:16.960Z,101526.44
2022-10-17T17:37:46.534Z,101526.66
2022-10-17T17:40:15.063Z,101531.31
2022-10-17T17:42:43.651Z,101533.19
2022-10-17T17:45:12.707Z,101533.28
2022-10-17T17:47:40.899Z,101537.84
2022-10-17T17:50:09.993Z,101529.91
2022-10-17T17:52:40.247Z,101530.97
2022-10-17T17:55:10.773Z,101541.81
2022-10-17T17:57:39.363Z,101540.31
2022-10-17T18:00:09.690Z,101545.97
2022-10-17T18:02:42.106Z,101547.16
2022-10-17T18:05:12.599Z,101552.91
2022-10-17T18:07:41.107Z,101560.59
2022-10-17T18:12:44.026Z,101568.13
2022-10-17T18:15:13.319Z,101558.47
2022-10-17T18:17:42.065Z,101567.63
2022-10-17T18:20:11.616Z,101562.53
2022-10-17T18:22:40.211Z,101559.25
2022-10-17T18:25:10.681Z,101553.28
2022-10-17T18:27:39.240Z,101565.03
2022-10-17T18:30:09.377Z,101569.63
2022-10-17T18:32:37.904Z,101565.34
2022-10-17T18:35:06.973Z,101564.63
2022-10-17T18:37:35.312Z,101558.69
2022-10-17T18:40:03.669Z,101563.22
2022-10-17T18:42:33.467Z,101556.22
2022-10-17T18:45:03.202Z,101565.09
2022-10-17T18:47:31.648Z,101570.41
2022-10-17T18:50:00.402Z,101570.41
2022-10-17T18:52:29.040Z,101575.03
2022-10-17T18:54:57.548Z,101577.94
2022-10-17T18:57:26.463Z,101579.00
2022-10-17T18:59:56.029Z,101572.88
2022-10-17T19:02:24.608Z,101576.59
2022-10-17T19:04:53.510Z,101574.94
2022-10-17T19:07:21.995Z,101579.56
2022-10-17T19:09:50.552Z,101582.28
2022-10-17T19:12:19.203Z,101576.22
2022-10-17T19:14:49.629Z,101572.78
2022-10-17T19:17:19.341Z,101581.72
2022-10-17T19:19:50.223Z,101573.78
2022-10-17T19:22:18.757Z,101570.34
2022-10-17T19:24:47.420Z,101566.09
2022-10-17T19:27:15.722Z,101572.47
2022-10-17T19:29:44.042Z,101562.94
2022-10-17T19:32:16.701Z,101568.44
2022-10-17T19:34:48.772Z,101560.66
2022-10-17T19:37:16.996Z,101574.13
2022-10-17T19:39:45.190Z,101567.22
2022-10-17T19:42:13.672Z,101563.00
2022-10-17T19:44:41.913Z,101568.47
2022-10-17T19:47:10.387Z,101574.69
2022-10-17T19:49:38.986Z,101570.31
2022-10-17T19:52:08.696Z,101557.97
2022-10-17T19:54:38.893Z,101560.69
2022-10-17T19:57:09.649Z,101565.13
2022-10-17T19:59:39.166Z,101566.09
2022-10-17T20:02:07.752Z,101559.09
2022-10-17T20:04:39.431Z,101558.25
2022-10-17T20:07:12.061Z,101561.09
2022-10-17T20:09:40.295Z,101558.59
2022-10-17T20:12:08.780Z,101562.25
2022-10-17T20:14:40.914Z,101556.16
2022-10-17T20:17:09.499Z,101562.47
2022-10-17T20:19:37.670Z,101556.34
2022-10-17T20:22:05.922Z,101559.97
2022-10-17T20:24:35.453Z,101564.38
2022-10-17T20:27:04.304Z,101564.47
2022-10-17T20:29:32.886Z,101560.09
2022-10-17T20:32:01.505Z,101553.88
2022-10-17T20:34:34.704Z,101558.34
2022-10-17T20:37:03.371Z,101562.00
2022-10-17T20:39:31.909Z,101557.63
2022-10-17T20:42:02.038Z,101556.91
2022-10-17T20:44:30.664Z,101564.16
2022-10-17T20:47:02.032Z,101573.00
2022-10-17T20:49:32.290Z,101563.38
2022-10-17T20:52:01.386Z,101571.34
2022-10-17T20:54:30.007Z,101565.22
2022-10-17T20:57:01.133Z,101559.03
2022-10-17T20:59:34.492Z,101572.41
2022-10-17T21:02:03.235Z,101568.97
2022-10-17T21:04:47.652Z,101570.81
2022-10-17T21:07:16.702Z,101570.91
2022-10-17T21:09:46.293Z,101568.28
2022-10-17T21:12:25.874Z,101568.50
2022-10-17T21:15:06.865Z,101571.31
2022-10-17T21:17:35.441Z,101574.19
2022-10-17T21:20:04.072Z,101578.75
2022-10-17T21:22:33.799Z,101585.97
2022-10-17T21:25:02.337Z,101590.53
2022-10-17T21:27:30.870Z,101580.91
2022-10-17T21:29:59.460Z,101593.38
2022-10-17T21:32:40.261Z,101588.19
2022-10-17T21:35:16.029Z,101586.63
2022-10-17T21:37:44.209Z,101575.19
2022-10-17T21:40:13.869Z,101572.66
2022-10-17T21:42:42.484Z,101576.38
2022-10-17T21:45:15.717Z,101576.50
2022-10-17T21:48:11.719Z,101573.94
2022-10-17T21:50:38.259Z,101576.72
2022-10-17T21:53:06.468Z,101580.34
2022-10-17T21:55:37.306Z,101575.16
2022-10-17T21:58:06.192Z,101576.13
2022-10-17T22:00:34.736Z,101578.00
2022-10-17T22:03:05.828Z,101585.16
2022-10-17T22:05:34.425Z,101583.50
2022-10-17T22:08:02.827Z,101582.69
2022-10-17T22:10:31.442Z,101589.88
2022-10-17T22:13:00.298Z,101588.13
2022-10-17T22:15:28.851Z,101592.56
2022-10-17T22:17:57.531Z,101574.06
2022-10-17T22:20:27.201Z,101582.94
2022-10-17T22:22:55.429Z,101584.75
2022-10-17T22:25:23.911Z,101574.97
2022-10-17T22:27:52.688Z,101579.38
2022-10-17T22:30:21.219Z,101568.75
2022-10-17T22:32:49.744Z,101569.63
2022-10-17T22:35:18.615Z,101568.75
2022-10-17T22:37:48.469Z,101568.75
2022-10-17T22:40:17.124Z,101563.50
2022-10-17T22:42:45.813Z,101567.94
2022-10-17T22:45:14.435Z,101565.28
2022-10-17T22:47:42.907Z,101569.78
2022-10-17T22:50:11.608Z,101570.78
2022-10-17T22:52:39.830Z,101570.84
2022-10-17T22:55:10.663Z,101570.84
2022-10-17T22:57:40.355Z,101564.69
2022-10-17T23:00:11.690Z,101563.81
2022-10-17T23:02:40.336Z,101556.78
2022-10-17T23:05:09.496Z,101558.66
2022-10-17T23:07:38.092Z,101563.06
2022-10-17T23:10:07.632Z,101560.47
2022-10-17T23:12:37.215Z,101561.38
2022-10-17T23:15:06.564Z,101567.63
2022-10-17T23:17:35.203Z,101574.78
2022-10-17T23:20:03.929Z,101571.34
2022-10-17T23:22:32.828Z,101570.50
2022-10-17T23:25:01.528Z,101558.97
2022-10-17T23:30:06.378Z,101566.81
2022-10-17T23:32:34.919Z,101558.84
2022-10-17T23:35:03.572Z,101564.97
2022-10-17T23:37:32.691Z,101561.47
2022-10-17T23:40:01.723Z,101559.69
2022-10-17T23:42:30.382Z,101557.03
2022-10-17T23:44:58.590Z,101562.31
2022-10-17T23:47:28.429Z,101559.69
2022-10-17T23:49:56.781Z,101550.91
2022-10-17T23:52:25.916Z,101545.59
2022-10-17T23:54:54.472Z,101548.25
2022-10-17T23:57:23.043Z,101541.09
2022-10-17T23:59:51.594Z,101546.34
